This is the latest recevied weather packets stored in our database for station/object KJ7HSW. If no packets are shown the sender has not sent any weather packets the latest 1 day(s).
| Time | Temp. | Humidity | Pressure | Rain* | Wind** | Luminosity | Snow |
|---|---|---|---|---|---|---|---|
| 1836274744 | 14.44° C | 93% | 1015.2 hPa | 0 mm | 0 m/s | 0 W/m² | - |
| 1836274442 | 14.44° C | 93% | 1015.1 hPa | 0 mm | 0.89 m/s, 281° | 0 W/m² | - |
| 1836274295 | 14.44° C | 93% | 1015.2 hPa | 0 mm | 0 m/s | 0 W/m² | - |
| 1836274139 | 14.44° C | 92% | 1015.1 hPa | 0 mm | 0 m/s | 0 W/m² | - |
| 1778050991 | 13.33° C | 87% | 1015.7 hPa | 0 mm | 1.34 m/s, 167° | 0 W/m² | - |
| 1778050688 | 13.33° C | 87% | 1015.6 hPa | 0 mm | 0.89 m/s, 199° | 0 W/m² | - |
| 1778050386 | 13.33° C | 87% | 1015.5 hPa | 0 mm | 1.34 m/s, 188° | 0 W/m² | - |
| 1778050082 | 13.33° C | 87% | 1015.5 hPa | 0 mm | 0.89 m/s, 180° | 0 W/m² | - |
| 1778049778 | 13.33° C | 86% | 1015.4 hPa | 0 mm | 0.89 m/s, 182° | 0 W/m² | - |
| 1778049475 | 13.33° C | 86% | 1015.4 hPa | 0 mm | 1.34 m/s, 202° | 0 W/m² | - |
| 1778049173 | 13.33° C | 86% | 1015.5 hPa | 0 mm | 1.34 m/s, 188° | 0 W/m² | - |
| 1778048871 | 13.33° C | 86% | 1015.3 hPa | 0 mm | 0.89 m/s, 183° | 0 W/m² | - |
| 1778048568 | 13.33° C | 87% | 1015.4 hPa | 0 mm | 1.34 m/s, 185° | 0 W/m² | - |
| 1778048264 | 13.33° C | 87% | 1015.4 hPa | 0 mm | 0.89 m/s, 209° | 0 W/m² | - |
| 1778047961 | 13.33° C | 86% | 1015.4 hPa | 0 mm | 1.34 m/s, 194° | 0 W/m² | - |
| 1778047660 | 13.33° C | 87% | 1015.2 hPa | 0 mm | 1.34 m/s, 212° | 0 W/m² | - |
| 1778047357 | 13.33° C | 87% | 1015.3 hPa | 0 mm | 1.34 m/s, 201° | 0 W/m² | - |
| 1778047054 | 13.33° C | 88% | 1015.4 hPa | 0 mm | 1.34 m/s, 185° | 0 W/m² | - |
| 1778046750 | 12.78° C | 89% | 1015.2 hPa | 0 mm | 1.34 m/s, 181° | 0 W/m² | - |
| 1778046448 | 12.78° C | 90% | 1015.2 hPa | 0 mm | 0.89 m/s, 235° | 0 W/m² | - |
| 1778046143 | 12.78° C | 89% | 1015.1 hPa | 0 mm | 0.89 m/s, 215° | 0 W/m² | - |
| 1778045841 | 12.78° C | 89% | 1015.2 hPa | 0 mm | 0.89 m/s, 188° | 0 W/m² | - |
| 1778045540 | 12.78° C | 88% | 1015 hPa | 0 mm | 0.89 m/s, 216° | 0 W/m² | - |
| 1778045237 | 12.78° C | 88% | 1015.2 hPa | 0 mm | 0.89 m/s, 250° | 0 W/m² | - |
| 1778044936 | 12.78° C | 88% | 1015.2 hPa | 0 mm | 1.34 m/s, 246° | 0 W/m² | - |
* Rain latest hour (hover to see other rain measurements)
** Current wind speed in m/s (hover to see current wind gust speed)